sensor_id;sensor_type;location;lat;lon;timestamp;pressure;altitude;pressure_sealevel;temperature;humidity
63285;BME280;49409;55.708;37.522;2023-01-25T00:00:46;100916.63;;;5.73;48.38
63285;BME280;49409;55.708;37.522;2023-01-25T00:03:11;100915.03;;;5.72;48.61
63285;BME280;49409;55.708;37.522;2023-01-25T00:05:36;100904.22;;;5.76;48.20
63285;BME280;49409;55.708;37.522;2023-01-25T00:08:02;100897.00;;;5.84;48.03
63285;BME280;49409;55.708;37.522;2023-01-25T00:10:27;100895.88;;;5.85;47.87
63285;BME280;49409;55.708;37.522;2023-01-25T00:12:54;100904.88;;;5.85;48.13
63285;BME280;49409;55.708;37.522;2023-01-25T00:15:19;100904.53;;;5.74;48.01
63285;BME280;49409;55.708;37.522;2023-01-25T00:17:44;100897.50;;;5.73;48.35
63285;BME280;49409;55.708;37.522;2023-01-25T00:20:10;100897.84;;;5.72;47.83
63285;BME280;49409;55.708;37.522;2023-01-25T00:22:38;100896.63;;;5.69;48.58
63285;BME280;49409;55.708;37.522;2023-01-25T00:25:04;100896.16;;;5.67;48.37
63285;BME280;49409;55.708;37.522;2023-01-25T00:27:29;100892.94;;;5.78;48.08
63285;BME280;49409;55.708;37.522;2023-01-25T00:29:54;100888.13;;;5.87;47.74
63285;BME280;49409;55.708;37.522;2023-01-25T00:34:46;100876.84;;;6.01;47.52
63285;BME280;49409;55.708;37.522;2023-01-25T00:37:19;100881.63;;;5.91;47.79
63285;BME280;49409;55.708;37.522;2023-01-25T00:39:45;100882.06;;;5.93;47.63
63285;BME280;49409;55.708;37.522;2023-01-25T00:42:11;100870.84;;;5.83;48.07
63285;BME280;49409;55.708;37.522;2023-01-25T00:44:37;100869.97;;;5.79;47.73
63285;BME280;49409;55.708;37.522;2023-01-25T00:47:02;100866.28;;;5.87;47.68
63285;BME280;49409;55.708;37.522;2023-01-25T00:49:29;100869.31;;;5.98;48.24
63285;BME280;49409;55.708;37.522;2023-01-25T00:51:56;100864.41;;;6.03;47.66
63285;BME280;49409;55.708;37.522;2023-01-25T00:54:21;100861.34;;;6.05;47.55
63285;BME280;49409;55.708;37.522;2023-01-25T00:56:49;100862.47;;;6.04;47.54
63285;BME280;49409;55.708;37.522;2023-01-25T00:59:18;100853.38;;;6.00;47.74
63285;BME280;49409;55.708;37.522;2023-01-25T01:01:43;100847.13;;;5.99;47.92
63285;BME280;49409;55.708;37.522;2023-01-25T01:04:08;100843.03;;;5.93;47.70
63285;BME280;49409;55.708;37.522;2023-01-25T01:06:34;100842.34;;;5.96;47.87
63285;BME280;49409;55.708;37.522;2023-01-25T01:09:00;100845.31;;;5.91;47.50
63285;BME280;49409;55.708;37.522;2023-01-25T01:11:25;100857.03;;;5.91;48.15
63285;BME280;49409;55.708;37.522;2023-01-25T01:13:50;100856.47;;;5.86;47.94
63285;BME280;49409;55.708;37.522;2023-01-25T01:16:16;100851.47;;;5.88;48.17
63285;BME280;49409;55.708;37.522;2023-01-25T01:18:42;100840.88;;;5.86;47.66
63285;BME280;49409;55.708;37.522;2023-01-25T01:21:08;100846.72;;;5.85;47.49
63285;BME280;49409;55.708;37.522;2023-01-25T01:23:34;100836.47;;;5.82;48.00
63285;BME280;49409;55.708;37.522;2023-01-25T01:26:03;100845.81;;;5.81;47.84
63285;BME280;49409;55.708;37.522;2023-01-25T01:28:30;100831.72;;;5.79;47.49
63285;BME280;49409;55.708;37.522;2023-01-25T01:30:59;100831.50;;;5.71;47.70
63285;BME280;49409;55.708;37.522;2023-01-25T01:33:25;100829.22;;;5.73;48.00
63285;BME280;49409;55.708;37.522;2023-01-25T01:35:50;100821.03;;;5.73;47.39
63285;BME280;49409;55.708;37.522;2023-01-25T01:38:16;100819.63;;;5.80;47.21
63285;BME280;49409;55.708;37.522;2023-01-25T01:40:44;100818.69;;;5.88;47.72
63285;BME280;49409;55.708;37.522;2023-01-25T01:43:20;100819.38;;;5.97;47.18
63285;BME280;49409;55.708;37.522;2023-01-25T01:45:50;100814.34;;;5.99;47.26
63285;BME280;49409;55.708;37.522;2023-01-25T01:50:45;100815.41;;;6.10;46.99
63285;BME280;49409;55.708;37.522;2023-01-25T01:53:11;100808.78;;;6.11;47.17
63285;BME280;49409;55.708;37.522;2023-01-25T01:55:36;100801.31;;;6.08;47.14
63285;BME280;49409;55.708;37.522;2023-01-25T01:58:02;100795.13;;;6.11;47.52
63285;BME280;49409;55.708;37.522;2023-01-25T02:00:29;100800.69;;;6.15;46.96
63285;BME280;49409;55.708;37.522;2023-01-25T02:02:56;100804.66;;;6.18;47.64
63285;BME280;49409;55.708;37.522;2023-01-25T02:07:57;100790.75;;;6.23;47.17
63285;BME280;49409;55.708;37.522;2023-01-25T02:10:23;100792.31;;;6.24;47.32
63285;BME280;49409;55.708;37.522;2023-01-25T02:12:50;100789.84;;;6.19;47.13
63285;BME280;49409;55.708;37.522;2023-01-25T02:15:17;100800.59;;;6.11;47.24
63285;BME280;49409;55.708;37.522;2023-01-25T02:17:42;100792.38;;;5.95;47.87
63285;BME280;49409;55.708;37.522;2023-01-25T02:20:16;100808.19;;;5.90;47.79
63285;BME280;49409;55.708;37.522;2023-01-25T02:22:53;100808.28;;;5.78;47.83
63285;BME280;49409;55.708;37.522;2023-01-25T02:25:20;100816.69;;;5.72;47.83
63285;BME280;49409;55.708;37.522;2023-01-25T02:27:56;100806.59;;;5.73;47.94
63285;BME280;49409;55.708;37.522;2023-01-25T02:30:24;100812.13;;;5.76;47.98
63285;BME280;49409;55.708;37.522;2023-01-25T02:32:49;100806.22;;;5.74;47.74
63285;BME280;49409;55.708;37.522;2023-01-25T02:35:21;100801.72;;;5.66;48.28
63285;BME280;49409;55.708;37.522;2023-01-25T02:37:49;100810.00;;;5.70;48.10
63285;BME280;49409;55.708;37.522;2023-01-25T02:40:16;100807.72;;;5.72;47.93
63285;BME280;49409;55.708;37.522;2023-01-25T02:42:42;100809.06;;;5.78;47.93
63285;BME280;49409;55.708;37.522;2023-01-25T02:45:08;100808.47;;;5.85;47.75
63285;BME280;49409;55.708;37.522;2023-01-25T02:47:37;100809.16;;;5.82;47.75
63285;BME280;49409;55.708;37.522;2023-01-25T02:50:03;100816.81;;;5.76;47.54
63285;BME280;49409;55.708;37.522;2023-01-25T02:52:28;100806.06;;;5.67;47.60
63285;BME280;49409;55.708;37.522;2023-01-25T02:54:53;100814.91;;;5.64;48.07
63285;BME280;49409;55.708;37.522;2023-01-25T02:57:19;100816.97;;;5.67;48.08
63285;BME280;49409;55.708;37.522;2023-01-25T02:59:44;100817.41;;;5.69;47.75
63285;BME280;49409;55.708;37.522;2023-01-25T03:02:10;100809.31;;;5.73;47.92
63285;BME280;49409;55.708;37.522;2023-01-25T03:04:35;100811.97;;;5.69;48.12
63285;BME280;49409;55.708;37.522;2023-01-25T03:07:00;100814.41;;;5.74;47.98
63285;BME280;49409;55.708;37.522;2023-01-25T03:09:25;100819.53;;;5.76;47.86
63285;BME280;49409;55.708;37.522;2023-01-25T03:11:51;100811.00;;;5.78;47.99
63285;BME280;49409;55.708;37.522;2023-01-25T03:14:16;100810.38;;;5.84;47.37
63285;BME280;49409;55.708;37.522;2023-01-25T03:16:41;100799.78;;;5.95;47.60
63285;BME280;49409;55.708;37.522;2023-01-25T03:19:07;100801.03;;;5.98;47.54
63285;BME280;49409;55.708;37.522;2023-01-25T03:21:32;100786.78;;;5.92;47.83
63285;BME280;49409;55.708;37.522;2023-01-25T03:23:58;100782.94;;;5.93;47.33
63285;BME280;49409;55.708;37.522;2023-01-25T03:26:25;100780.53;;;5.91;47.30
63285;BME280;49409;55.708;37.522;2023-01-25T03:28:50;100779.03;;;5.94;47.76
63285;BME280;49409;55.708;37.522;2023-01-25T03:31:16;100776.31;;;5.94;47.31
63285;BME280;49409;55.708;37.522;2023-01-25T03:33:41;100781.56;;;5.99;47.25
63285;BME280;49409;55.708;37.522;2023-01-25T03:36:07;100781.31;;;6.04;47.74
63285;BME280;49409;55.708;37.522;2023-01-25T03:38:33;100777.41;;;6.05;47.66
63285;BME280;49409;55.708;37.522;2023-01-25T03:40:58;100780.84;;;6.02;47.86
63285;BME280;49409;55.708;37.522;2023-01-25T03:43:24;100779.25;;;6.01;47.35
63285;BME280;49409;55.708;37.522;2023-01-25T03:45:53;100763.66;;;6.02;47.83
63285;BME280;49409;55.708;37.522;2023-01-25T03:48:19;100784.03;;;6.04;47.40
63285;BME280;49409;55.708;37.522;2023-01-25T03:50:50;100788.34;;;6.05;47.57
63285;BME280;49409;55.708;37.522;2023-01-25T03:53:17;100784.28;;;5.99;47.65
63285;BME280;49409;55.708;37.522;2023-01-25T03:55:58;100788.03;;;5.79;48.21
63285;BME280;49409;55.708;37.522;2023-01-25T03:58:24;100790.28;;;5.76;47.68
63285;BME280;49409;55.708;37.522;2023-01-25T04:00:49;100781.19;;;5.72;47.89
63285;BME280;49409;55.708;37.522;2023-01-25T04:03:15;100784.38;;;5.74;48.49
63285;BME280;49409;55.708;37.522;2023-01-25T04:05:41;100780.28;;;5.81;47.52
63285;BME280;49409;55.708;37.522;2023-01-25T04:08:07;100793.66;;;5.86;48.01
63285;BME280;49409;55.708;37.522;2023-01-25T04:10:32;100791.72;;;5.86;47.70
63285;BME280;49409;55.708;37.522;2023-01-25T04:12:57;100792.09;;;5.85;47.76
63285;BME280;49409;55.708;37.522;2023-01-25T04:15:23;100786.19;;;5.83;47.87
63285;BME280;49409;55.708;37.522;2023-01-25T04:17:48;100783.44;;;5.83;47.92
63285;BME280;49409;55.708;37.522;2023-01-25T04:20:13;100784.13;;;5.80;48.25
63285;BME280;49409;55.708;37.522;2023-01-25T04:22:39;100778.66;;;5.80;48.30
63285;BME280;49409;55.708;37.522;2023-01-25T04:25:04;100778.47;;;5.72;48.33
63285;BME280;49409;55.708;37.522;2023-01-25T04:27:30;100774.16;;;5.71;48.07
63285;BME280;49409;55.708;37.522;2023-01-25T04:29:55;100771.63;;;5.79;47.71
63285;BME280;49409;55.708;37.522;2023-01-25T04:32:20;100777.09;;;5.79;47.71
63285;BME280;49409;55.708;37.522;2023-01-25T04:34:46;100785.75;;;5.81;47.54
63285;BME280;49409;55.708;37.522;2023-01-25T04:37:11;100791.88;;;5.78;48.15
63285;BME280;49409;55.708;37.522;2023-01-25T04:39:36;100785.47;;;5.86;48.00
63285;BME280;49409;55.708;37.522;2023-01-25T04:42:02;100786.19;;;5.83;47.84
63285;BME280;49409;55.708;37.522;2023-01-25T04:44:27;100786.88;;;5.80;47.95
63285;BME280;49409;55.708;37.522;2023-01-25T04:46:52;100790.09;;;5.69;48.12
63285;BME280;49409;55.708;37.522;2023-01-25T04:49:18;100792.19;;;5.60;47.79
63285;BME280;49409;55.708;37.522;2023-01-25T04:51:43;100788.34;;;5.61;48.09
63285;BME280;49409;55.708;37.522;2023-01-25T04:54:08;100790.16;;;5.57;48.02
63285;BME280;49409;55.708;37.522;2023-01-25T04:56:34;100803.59;;;5.50;48.18
63285;BME280;49409;55.708;37.522;2023-01-25T04:58:59;100805.22;;;5.39;48.68
63285;BME280;49409;55.708;37.522;2023-01-25T05:01:25;100804.44;;;5.38;48.46
63285;BME280;49409;55.708;37.522;2023-01-25T05:03:50;100797.25;;;5.46;47.94
63285;BME280;49409;55.708;37.522;2023-01-25T05:06:15;100797.69;;;5.48;47.86
63285;BME280;49409;55.708;37.522;2023-01-25T05:08:41;100795.88;;;5.52;48.05
63285;BME280;49409;55.708;37.522;2023-01-25T05:11:06;100785.44;;;5.42;48.09
63285;BME280;49409;55.708;37.522;2023-01-25T05:13:31;100791.59;;;5.39;48.53
63285;BME280;49409;55.708;37.522;2023-01-25T05:15:57;100797.66;;;5.32;48.66
63285;BME280;49409;55.708;37.522;2023-01-25T05:18:22;100796.94;;;5.35;48.34
63285;BME280;49409;55.708;37.522;2023-01-25T05:20:52;100800.13;;;5.37;48.33
63285;BME280;49409;55.708;37.522;2023-01-25T05:23:17;100785.94;;;5.31;48.36
63285;BME280;49409;55.708;37.522;2023-01-25T05:25:43;100783.69;;;5.21;48.38
63285;BME280;49409;55.708;37.522;2023-01-25T05:28:26;100792.13;;;5.16;48.25
63285;BME280;49409;55.708;37.522;2023-01-25T05:30:52;100801.09;;;5.16;47.98
63285;BME280;49409;55.708;37.522;2023-01-25T05:33:17;100793.94;;;5.12;47.94
63285;BME280;49409;55.708;37.522;2023-01-25T05:35:42;100796.22;;;5.10;48.37
63285;BME280;49409;55.708;37.522;2023-01-25T05:38:08;100801.56;;;5.06;47.99
63285;BME280;49409;55.708;37.522;2023-01-25T05:40:33;100802.38;;;5.07;48.18
63285;BME280;49409;55.708;37.522;2023-01-25T05:42:59;100805.09;;;5.07;48.41
63285;BME280;49409;55.708;37.522;2023-01-25T05:45:24;100803.53;;;5.06;47.90
63285;BME280;49409;55.708;37.522;2023-01-25T05:47:53;100789.97;;;5.09;48.24
63285;BME280;49409;55.708;37.522;2023-01-25T05:50:18;100776.31;;;5.09;48.14
63285;BME280;49409;55.708;37.522;2023-01-25T05:52:44;100785.31;;;5.10;48.10
63285;BME280;49409;55.708;37.522;2023-01-25T05:55:10;100775.41;;;5.18;48.00
63285;BME280;49409;55.708;37.522;2023-01-25T05:57:35;100776.41;;;5.25;47.72
63285;BME280;49409;55.708;37.522;2023-01-25T06:00:01;100781.88;;;5.25;47.83
63285;BME280;49409;55.708;37.522;2023-01-25T06:02:26;100784.69;;;5.29;47.65
63285;BME280;49409;55.708;37.522;2023-01-25T06:04:51;100787.84;;;5.31;48.27
63285;BME280;49409;55.708;37.522;2023-01-25T06:07:17;100790.59;;;5.31;48.20
63285;BME280;49409;55.708;37.522;2023-01-25T06:09:44;100793.69;;;5.29;48.20
63285;BME280;49409;55.708;37.522;2023-01-25T06:12:09;100794.38;;;5.26;48.07
63285;BME280;49409;55.708;37.522;2023-01-25T06:14:35;100788.91;;;5.26;47.99
63285;BME280;49409;55.708;37.522;2023-01-25T06:17:00;100792.88;;;5.29;48.04
63285;BME280;49409;55.708;37.522;2023-01-25T06:19:25;100799.31;;;5.36;47.79
63285;BME280;49409;55.708;37.522;2023-01-25T06:21:51;100789.75;;;5.43;47.97
63285;BME280;49409;55.708;37.522;2023-01-25T06:24:16;100792.00;;;5.53;47.81
63285;BME280;49409;55.708;37.522;2023-01-25T06:26:42;100788.34;;;5.61;47.56
63285;BME280;49409;55.708;37.522;2023-01-25T06:29:07;100793.41;;;5.63;47.95
63285;BME280;49409;55.708;37.522;2023-01-25T06:31:32;100790.00;;;5.66;47.77
63285;BME280;49409;55.708;37.522;2023-01-25T06:33:58;100784.66;;;5.69;47.31
63285;BME280;49409;55.708;37.522;2023-01-25T06:36:28;100788.94;;;5.70;47.28
63285;BME280;49409;55.708;37.522;2023-01-25T06:38:54;100779.63;;;5.71;47.70
63285;BME280;49409;55.708;37.522;2023-01-25T06:41:19;100792.66;;;5.78;47.75
63285;BME280;49409;55.708;37.522;2023-01-25T06:43:45;100798.22;;;5.82;47.92
63285;BME280;49409;55.708;37.522;2023-01-25T06:46:11;100787.31;;;5.82;47.79
63285;BME280;49409;55.708;37.522;2023-01-25T06:48:37;100793.66;;;5.86;47.42
63285;BME280;49409;55.708;37.522;2023-01-25T06:51:03;100803.81;;;5.85;47.59
63285;BME280;49409;55.708;37.522;2023-01-25T06:53:30;100799.84;;;5.83;47.23
63285;BME280;49409;55.708;37.522;2023-01-25T06:56:02;100797.34;;;5.78;47.87
63285;BME280;49409;55.708;37.522;2023-01-25T06:58:28;100805.09;;;5.75;47.58
63285;BME280;49409;55.708;37.522;2023-01-25T07:00:58;100794.16;;;5.75;47.27
63285;BME280;49409;55.708;37.522;2023-01-25T07:03:24;100797.34;;;5.78;47.71
63285;BME280;49409;55.708;37.522;2023-01-25T07:05:49;100806.94;;;5.71;47.53
63285;BME280;49409;55.708;37.522;2023-01-25T07:08:15;100794.78;;;5.69;48.02
63285;BME280;49409;55.708;37.522;2023-01-25T07:10:41;100797.75;;;5.64;47.48
63285;BME280;49409;55.708;37.522;2023-01-25T07:13:06;100794.75;;;5.53;48.36
63285;BME280;49409;55.708;37.522;2023-01-25T07:15:32;100799.72;;;5.51;47.92
63285;BME280;49409;55.708;37.522;2023-01-25T07:17:57;100793.59;;;5.54;48.21
63285;BME280;49409;55.708;37.522;2023-01-25T07:20:23;100792.97;;;5.61;47.56
63285;BME280;49409;55.708;37.522;2023-01-25T07:22:48;100789.91;;;5.62;47.67
63285;BME280;49409;55.708;37.522;2023-01-25T07:25:13;100784.88;;;5.64;47.69
63285;BME280;49409;55.708;37.522;2023-01-25T07:27:39;100781.47;;;5.67;47.52
63285;BME280;49409;55.708;37.522;2023-01-25T07:30:04;100781.91;;;5.69;47.29
63285;BME280;49409;55.708;37.522;2023-01-25T07:32:30;100784.81;;;5.76;47.53
63285;BME280;49409;55.708;37.522;2023-01-25T07:34:55;100780.28;;;5.81;47.17
63285;BME280;49409;55.708;37.522;2023-01-25T07:37:21;100786.19;;;5.83;47.42
63285;BME280;49409;55.708;37.522;2023-01-25T07:39:46;100776.47;;;5.85;47.34
63285;BME280;49409;55.708;37.522;2023-01-25T07:42:14;100785.66;;;5.93;47.20
63285;BME280;49409;55.708;37.522;2023-01-25T07:44:40;100785.31;;;5.94;47.05
63285;BME280;49409;55.708;37.522;2023-01-25T07:47:05;100781.16;;;5.85;47.35
63285;BME280;49409;55.708;37.522;2023-01-25T07:49:30;100785.03;;;5.84;47.57
63285;BME280;49409;55.708;37.522;2023-01-25T07:51:56;100776.59;;;5.89;47.44
63285;BME280;49409;55.708;37.522;2023-01-25T07:54:21;100773.25;;;5.95;47.40
63285;BME280;49409;55.708;37.522;2023-01-25T07:56:46;100770.28;;;6.01;47.44
63285;BME280;49409;55.708;37.522;2023-01-25T07:59:12;100780.25;;;6.09;47.53
63285;BME280;49409;55.708;37.522;2023-01-25T08:01:38;100773.38;;;6.15;47.66
63285;BME280;49409;55.708;37.522;2023-01-25T08:07:06;100773.28;;;6.11;47.26
63285;BME280;49409;55.708;37.522;2023-01-25T08:09:32;100771.25;;;6.08;47.71
63285;BME280;49409;55.708;37.522;2023-01-25T08:11:57;100776.72;;;6.08;47.26
63285;BME280;49409;55.708;37.522;2023-01-25T08:14:22;100768.53;;;6.08;47.80
63285;BME280;49409;55.708;37.522;2023-01-25T08:16:48;100774.88;;;6.12;47.05
63285;BME280;49409;55.708;37.522;2023-01-25T08:19:14;100769.41;;;6.12;47.49
63285;BME280;49409;55.708;37.522;2023-01-25T08:21:40;100770.97;;;6.13;47.72
63285;BME280;49409;55.708;37.522;2023-01-25T08:24:06;100775.75;;;6.17;47.69
63285;BME280;49409;55.708;37.522;2023-01-25T08:26:32;100770.72;;;6.19;47.54
63285;BME280;49409;55.708;37.522;2023-01-25T08:28:58;100772.13;;;6.12;47.19
63285;BME280;49409;55.708;37.522;2023-01-25T08:31:24;100772.28;;;6.04;47.43
63285;BME280;49409;55.708;37.522;2023-01-25T08:33:50;100776.28;;;6.06;47.75
63285;BME280;49409;55.708;37.522;2023-01-25T08:36:16;100766.47;;;6.05;47.32
63285;BME280;49409;55.708;37.522;2023-01-25T08:38:42;100771.50;;;6.03;47.65
63285;BME280;49409;55.708;37.522;2023-01-25T08:41:09;100767.53;;;6.01;47.82
63285;BME280;49409;55.708;37.522;2023-01-25T08:43:35;100762.25;;;6.08;47.80
63285;BME280;49409;55.708;37.522;2023-01-25T08:46:01;100752.56;;;6.10;47.40
63285;BME280;49409;55.708;37.522;2023-01-25T08:48:27;100761.47;;;6.07;47.42
63285;BME280;49409;55.708;37.522;2023-01-25T08:50:52;100756.00;;;6.07;47.69
63285;BME280;49409;55.708;37.522;2023-01-25T08:53:17;100747.16;;;6.14;47.69
63285;BME280;49409;55.708;37.522;2023-01-25T08:55:43;100738.91;;;6.10;47.37
63285;BME280;49409;55.708;37.522;2023-01-25T08:58:09;100731.50;;;6.11;47.52
63285;BME280;49409;55.708;37.522;2023-01-25T09:00:36;100737.50;;;6.17;47.55
63285;BME280;49409;55.708;37.522;2023-01-25T09:03:02;100731.69;;;6.18;47.79
63285;BME280;49409;55.708;37.522;2023-01-25T09:05:28;100729.00;;;6.22;47.58
63285;BME280;49409;55.708;37.522;2023-01-25T09:07:53;100722.66;;;6.18;47.38
63285;BME280;49409;55.708;37.522;2023-01-25T09:10:19;100717.03;;;6.10;47.52
63285;BME280;49409;55.708;37.522;2023-01-25T09:12:44;100720.22;;;6.12;47.22
63285;BME280;49409;55.708;37.522;2023-01-25T09:15:09;100720.22;;;6.12;47.53
63285;BME280;49409;55.708;37.522;2023-01-25T09:17:35;100713.16;;;6.11;47.44
63285;BME280;49409;55.708;37.522;2023-01-25T09:20:04;100660.09;;;5.81;47.41
63285;BME280;49409;55.708;37.522;2023-01-25T09:22:30;100711.59;;;6.10;47.32
63285;BME280;49409;55.708;37.522;2023-01-25T09:24:55;100708.13;;;6.13;46.94
63285;BME280;49409;55.708;37.522;2023-01-25T09:27:20;100700.09;;;6.21;47.23
63285;BME280;49409;55.708;37.522;2023-01-25T09:29:46;100696.22;;;6.22;46.75
63285;BME280;49409;55.708;37.522;2023-01-25T09:32:11;100699.38;;;6.24;47.01
63285;BME280;49409;55.708;37.522;2023-01-25T09:34:36;100691.34;;;6.31;46.99
63285;BME280;49409;55.708;37.522;2023-01-25T09:37:02;100685.44;;;6.29;46.90
63285;BME280;49409;55.708;37.522;2023-01-25T09:39:27;100676.91;;;6.30;46.99
63285;BME280;49409;55.708;37.522;2023-01-25T09:46:56;100661.72;;;6.33;47.06
63285;BME280;49409;55.708;37.522;2023-01-25T09:52:00;100659.69;;;6.30;46.76
63285;BME280;49409;55.708;37.522;2023-01-25T09:54:27;100650.09;;;6.36;46.96
63285;BME280;49409;55.708;37.522;2023-01-25T09:56:54;100654.13;;;6.42;47.14
63285;BME280;49409;55.708;37.522;2023-01-25T09:59:21;100651.41;;;6.42;46.80
63285;BME280;49409;55.708;37.522;2023-01-25T10:01:58;100642.03;;;6.43;47.12
63285;BME280;49409;55.708;37.522;2023-01-25T10:04:27;100643.91;;;6.39;47.12
63285;BME280;49409;55.708;37.522;2023-01-25T10:07:02;100639.59;;;6.38;47.25
63285;BME280;49409;55.708;37.522;2023-01-25T10:12:03;100632.22;;;6.23;47.59
63285;BME280;49409;55.708;37.522;2023-01-25T10:14:29;100628.31;;;6.24;47.13
63285;BME280;49409;55.708;37.522;2023-01-25T10:22:20;100615.25;;;6.33;47.03
63285;BME280;49409;55.708;37.522;2023-01-25T10:24:54;100623.72;;;6.28;46.81
63285;BME280;49409;55.708;37.522;2023-01-25T10:27:27;100626.88;;;6.30;47.34
63285;BME280;49409;55.708;37.522;2023-01-25T10:29:55;100626.75;;;6.23;47.35
63285;BME280;49409;55.708;37.522;2023-01-25T10:34:49;100623.16;;;6.19;46.91
63285;BME280;49409;55.708;37.522;2023-01-25T10:37:18;100632.78;;;6.12;47.51
63285;BME280;49409;55.708;37.522;2023-01-25T10:42:19;100616.38;;;6.12;47.33
63285;BME280;49409;55.708;37.522;2023-01-25T10:44:46;100613.25;;;6.14;47.36
63285;BME280;49409;55.708;37.522;2023-01-25T10:47:14;100612.47;;;6.13;47.05
63285;BME280;49409;55.708;37.522;2023-01-25T10:49:54;100605.06;;;6.14;46.90
63285;BME280;49409;55.708;37.522;2023-01-25T10:52:24;100610.63;;;6.18;47.09
63285;BME280;49409;55.708;37.522;2023-01-25T10:57:34;100599.81;;;6.05;46.79
63285;BME280;49409;55.708;37.522;2023-01-25T11:00:01;100604.41;;;6.01;47.34
63285;BME280;49409;55.708;37.522;2023-01-25T11:07:42;100580.44;;;5.94;47.38
63285;BME280;49409;55.708;37.522;2023-01-25T11:15:35;100589.03;;;6.12;46.41
63285;BME280;49409;55.708;37.522;2023-01-25T11:18:11;100574.94;;;6.10;46.26
63285;BME280;49409;55.708;37.522;2023-01-25T11:20:37;100575.09;;;6.18;46.29
63285;BME280;49409;55.708;37.522;2023-01-25T11:23:02;100572.72;;;6.16;46.40
63285;BME280;49409;55.708;37.522;2023-01-25T11:25:31;100567.25;;;6.16;46.35
63285;BME280;49409;55.708;37.522;2023-01-25T11:28:09;100565.66;;;6.15;46.16
63285;BME280;49409;55.708;37.522;2023-01-25T11:30:34;100568.31;;;6.11;46.36
63285;BME280;49409;55.708;37.522;2023-01-25T11:33:00;100562.16;;;6.14;45.98
63285;BME280;49409;55.708;37.522;2023-01-25T11:35:26;100562.50;;;6.13;45.81
63285;BME280;49409;55.708;37.522;2023-01-25T11:38:11;100549.97;;;6.12;45.83
63285;BME280;49409;55.708;37.522;2023-01-25T11:40:40;100552.22;;;6.06;46.37
63285;BME280;49409;55.708;37.522;2023-01-25T11:45:50;100546.03;;;6.09;46.03
63285;BME280;49409;55.708;37.522;2023-01-25T11:53:45;100541.94;;;6.19;45.85
63285;BME280;49409;55.708;37.522;2023-01-25T12:16:38;100538.94;;;6.44;45.36
63285;BME280;49409;55.708;37.522;2023-01-25T12:29:33;100534.25;;;6.25;45.48
63285;BME280;49409;55.708;37.522;2023-01-25T12:32:10;100534.25;;;6.25;45.09
63285;BME280;49409;55.708;37.522;2023-01-25T12:34:41;100527.19;;;6.24;45.34
63285;BME280;49409;55.708;37.522;2023-01-25T12:37:27;100524.03;;;6.22;45.30
63285;BME280;49409;55.708;37.522;2023-01-25T12:45:52;100515.13;;;6.25;45.67
63285;BME280;49409;55.708;37.522;2023-01-25T12:48:24;100518.28;;;6.27;45.09
63285;BME280;49409;55.708;37.522;2023-01-25T12:50:58;100505.28;;;6.20;45.33
63285;BME280;49409;55.708;37.522;2023-01-25T12:53:26;100505.31;;;6.24;45.44
63285;BME280;49409;55.708;37.522;2023-01-25T12:55:52;100499.88;;;6.24;45.67
63285;BME280;49409;55.708;37.522;2023-01-25T12:58:29;100500.28;;;6.26;45.67
63285;BME280;49409;55.708;37.522;2023-01-25T13:03:46;100504.19;;;6.25;45.31
63285;BME280;49409;55.708;37.522;2023-01-25T13:06:33;100500.72;;;6.28;45.42
63285;BME280;49409;55.708;37.522;2023-01-25T13:09:16;100508.13;;;6.27;45.20
63285;BME280;49409;55.708;37.522;2023-01-25T13:11:45;100504.34;;;6.32;45.08
63285;BME280;49409;55.708;37.522;2023-01-25T13:16:49;100491.09;;;6.34;45.44
63285;BME280;49409;55.708;37.522;2023-01-25T13:19:37;100477.44;;;6.34;45.46
63285;BME280;49409;55.708;37.522;2023-01-25T13:22:02;100479.00;;;6.35;45.51
63285;BME280;49409;55.708;37.522;2023-01-25T13:24:32;100473.97;;;6.37;45.64
63285;BME280;49409;55.708;37.522;2023-01-25T13:26:59;100477.13;;;6.39;45.38
63285;BME280;49409;55.708;37.522;2023-01-25T13:31:56;100476.28;;;6.35;45.69
63285;BME280;49409;55.708;37.522;2023-01-25T13:39:41;100442.53;;;6.27;45.58
63285;BME280;49409;55.708;37.522;2023-01-25T13:44:33;100440.75;;;6.15;45.83
63285;BME280;49409;55.708;37.522;2023-01-25T13:47:03;100437.75;;;6.01;46.14
63285;BME280;49409;55.708;37.522;2023-01-25T13:49:33;100430.53;;;5.93;45.68
63285;BME280;49409;55.708;37.522;2023-01-25T13:52:00;100420.06;;;5.95;45.99
63285;BME280;49409;55.708;37.522;2023-01-25T13:54:26;100418.19;;;5.99;45.76
63285;BME280;49409;55.708;37.522;2023-01-25T13:57:10;100419.06;;;6.03;45.63
63285;BME280;49409;55.708;37.522;2023-01-25T13:59:36;100408.47;;;6.02;45.56
63285;BME280;49409;55.708;37.522;2023-01-25T14:02:01;100410.41;;;6.01;46.05
63285;BME280;49409;55.708;37.522;2023-01-25T14:04:28;100404.88;;;5.98;45.93
63285;BME280;49409;55.708;37.522;2023-01-25T14:06:58;100402.44;;;5.92;46.04
63285;BME280;49409;55.708;37.522;2023-01-25T14:09:24;100404.22;;;5.85;45.97
63285;BME280;49409;55.708;37.522;2023-01-25T14:11:59;100403.34;;;5.81;46.04
63285;BME280;49409;55.708;37.522;2023-01-25T14:14:30;100391.34;;;5.85;46.01
63285;BME280;49409;55.708;37.522;2023-01-25T14:19:39;100405.59;;;5.75;46.49
63285;BME280;49409;55.708;37.522;2023-01-25T14:22:26;100403.91;;;5.70;46.54
63285;BME280;49409;55.708;37.522;2023-01-25T14:27:40;100413.03;;;5.78;46.29
63285;BME280;49409;55.708;37.522;2023-01-25T14:30:11;100402.34;;;5.69;46.10
63285;BME280;49409;55.708;37.522;2023-01-25T14:32:39;100399.25;;;5.71;46.32
63285;BME280;49409;55.708;37.522;2023-01-25T14:37:49;100393.84;;;5.74;46.34
63285;BME280;49409;55.708;37.522;2023-01-25T14:40:15;100391.25;;;5.62;46.86
63285;BME280;49409;55.708;37.522;2023-01-25T14:42:43;100391.34;;;5.66;46.67